Airports Morocco Ibn Batouta Airport

Ibn Batouta Airport (GMTT / TNG)

Facts about Ibn Batouta Airport

Name Ibn Batouta Airport
City Tanger
Country Morocco
ICAO code GMTT
IATA code TNG
Elevation 18.8976 meters (62 feet)

Weather

METAR

Metar data retrieved Saturday, 20 July 2024 at 00:55 UTC (2 minutes ago)

GMTT 200030Z VRB02KT CAVOK 24/19 Q1014 NOSIG

Live traffic

Navigraph Charts (account required)